sensor_id;sensor_type;location;lat;lon;timestamp;temperature;humidity
24262;DHT22;12385;51.412;5.540;2022-08-19T00:00:08;20.30;99.90
24262;DHT22;12385;51.412;5.540;2022-08-19T00:02:35;20.30;99.90
24262;DHT22;12385;51.412;5.540;2022-08-19T00:05:01;20.30;99.90
24262;DHT22;12385;51.412;5.540;2022-08-19T00:07:27;20.30;99.90
24262;DHT22;12385;51.412;5.540;2022-08-19T00:09:52;20.30;99.90
24262;DHT22;12385;51.412;5.540;2022-08-19T00:12:19;20.30;99.90
24262;DHT22;12385;51.412;5.540;2022-08-19T00:14:44;20.20;99.90
24262;DHT22;12385;51.412;5.540;2022-08-19T00:17:10;20.10;99.90
24262;DHT22;12385;51.412;5.540;2022-08-19T00:19:36;20.10;99.90
24262;DHT22;12385;51.412;5.540;2022-08-19T00:22:02;20.00;99.90
24262;DHT22;12385;51.412;5.540;2022-08-19T00:24:28;20.00;99.90
24262;DHT22;12385;51.412;5.540;2022-08-19T00:26:55;19.90;99.90
24262;DHT22;12385;51.412;5.540;2022-08-19T00:29:23;19.90;99.90
24262;DHT22;12385;51.412;5.540;2022-08-19T00:31:50;19.80;99.90
24262;DHT22;12385;51.412;5.540;2022-08-19T00:34:18;19.80;99.90
24262;DHT22;12385;51.412;5.540;2022-08-19T00:36:44;19.70;99.90
24262;DHT22;12385;51.412;5.540;2022-08-19T00:39:11;19.70;99.90
24262;DHT22;12385;51.412;5.540;2022-08-19T00:41:38;19.70;99.90
24262;DHT22;12385;51.412;5.540;2022-08-19T00:44:05;19.60;99.90
24262;DHT22;12385;51.412;5.540;2022-08-19T00:46:33;19.60;99.90
24262;DHT22;12385;51.412;5.540;2022-08-19T00:49:01;19.60;99.90
24262;DHT22;12385;51.412;5.540;2022-08-19T00:51:30;19.50;99.90
24262;DHT22;12385;51.412;5.540;2022-08-19T00:53:58;19.40;99.90
24262;DHT22;12385;51.412;5.540;2022-08-19T00:56:24;19.40;99.90
24262;DHT22;12385;51.412;5.540;2022-08-19T00:58:53;19.30;99.90
24262;DHT22;12385;51.412;5.540;2022-08-19T01:01:19;19.30;99.90
24262;DHT22;12385;51.412;5.540;2022-08-19T01:03:45;19.20;99.90
24262;DHT22;12385;51.412;5.540;2022-08-19T01:06:11;19.20;99.90
24262;DHT22;12385;51.412;5.540;2022-08-19T01:08:36;19.20;99.90
24262;DHT22;12385;51.412;5.540;2022-08-19T01:11:02;19.20;99.90
24262;DHT22;12385;51.412;5.540;2022-08-19T01:13:32;19.20;99.90
24262;DHT22;12385;51.412;5.540;2022-08-19T01:16:04;19.20;99.90
24262;DHT22;12385;51.412;5.540;2022-08-19T01:18:32;19.20;99.90
24262;DHT22;12385;51.412;5.540;2022-08-19T01:21:02;19.10;99.90
24262;DHT22;12385;51.412;5.540;2022-08-19T01:23:31;19.20;99.90
24262;DHT22;12385;51.412;5.540;2022-08-19T01:26:17;19.20;99.90
24262;DHT22;12385;51.412;5.540;2022-08-19T01:28:45;19.10;99.90
24262;DHT22;12385;51.412;5.540;2022-08-19T01:31:18;19.20;99.90
24262;DHT22;12385;51.412;5.540;2022-08-19T01:33:44;19.20;99.90
24262;DHT22;12385;51.412;5.540;2022-08-19T01:36:15;19.20;99.90
24262;DHT22;12385;51.412;5.540;2022-08-19T01:38:43;19.20;99.90
24262;DHT22;12385;51.412;5.540;2022-08-19T01:41:11;19.10;99.90
24262;DHT22;12385;51.412;5.540;2022-08-19T01:43:37;19.10;99.90
24262;DHT22;12385;51.412;5.540;2022-08-19T01:46:03;19.10;99.90
24262;DHT22;12385;51.412;5.540;2022-08-19T01:48:34;19.00;99.90
24262;DHT22;12385;51.412;5.540;2022-08-19T01:51:00;19.00;99.90
24262;DHT22;12385;51.412;5.540;2022-08-19T01:53:26;19.00;99.90
24262;DHT22;12385;51.412;5.540;2022-08-19T01:55:51;19.00;99.90
24262;DHT22;12385;51.412;5.540;2022-08-19T01:58:20;19.00;99.90
24262;DHT22;12385;51.412;5.540;2022-08-19T02:00:47;18.90;99.90
24262;DHT22;12385;51.412;5.540;2022-08-19T02:03:13;19.00;99.90
24262;DHT22;12385;51.412;5.540;2022-08-19T02:05:40;18.90;99.90
24262;DHT22;12385;51.412;5.540;2022-08-19T02:08:06;18.90;99.90
24262;DHT22;12385;51.412;5.540;2022-08-19T02:10:32;18.90;99.90
24262;DHT22;12385;51.412;5.540;2022-08-19T02:12:58;18.90;99.90
24262;DHT22;12385;51.412;5.540;2022-08-19T02:15:24;18.80;99.90
24262;DHT22;12385;51.412;5.540;2022-08-19T02:17:51;18.80;99.90
24262;DHT22;12385;51.412;5.540;2022-08-19T02:20:16;18.80;99.90
24262;DHT22;12385;51.412;5.540;2022-08-19T02:22:43;18.70;99.90
24262;DHT22;12385;51.412;5.540;2022-08-19T02:25:10;18.70;99.90
24262;DHT22;12385;51.412;5.540;2022-08-19T02:27:36;18.70;99.90
24262;DHT22;12385;51.412;5.540;2022-08-19T02:30:05;18.60;99.90
24262;DHT22;12385;51.412;5.540;2022-08-19T02:32:31;18.60;99.90
24262;DHT22;12385;51.412;5.540;2022-08-19T02:34:57;18.50;99.90
24262;DHT22;12385;51.412;5.540;2022-08-19T02:37:23;18.50;99.90
24262;DHT22;12385;51.412;5.540;2022-08-19T02:40:07;18.40;99.90
24262;DHT22;12385;51.412;5.540;2022-08-19T02:42:33;18.30;99.90
24262;DHT22;12385;51.412;5.540;2022-08-19T02:44:59;18.30;99.90
24262;DHT22;12385;51.412;5.540;2022-08-19T02:47:24;18.30;99.90
24262;DHT22;12385;51.412;5.540;2022-08-19T02:49:50;18.20;99.90
24262;DHT22;12385;51.412;5.540;2022-08-19T02:52:16;18.20;99.90
24262;DHT22;12385;51.412;5.540;2022-08-19T02:54:42;18.20;99.90
24262;DHT22;12385;51.412;5.540;2022-08-19T02:57:07;18.20;99.90
24262;DHT22;12385;51.412;5.540;2022-08-19T02:59:33;18.20;99.90
24262;DHT22;12385;51.412;5.540;2022-08-19T03:01:59;18.20;99.90
24262;DHT22;12385;51.412;5.540;2022-08-19T03:04:25;18.20;99.90
24262;DHT22;12385;51.412;5.540;2022-08-19T03:06:50;18.20;99.90
24262;DHT22;12385;51.412;5.540;2022-08-19T03:09:18;18.20;99.90
24262;DHT22;12385;51.412;5.540;2022-08-19T03:11:44;18.20;99.90
24262;DHT22;12385;51.412;5.540;2022-08-19T03:14:10;18.10;99.90
24262;DHT22;12385;51.412;5.540;2022-08-19T03:16:46;18.20;99.90
24262;DHT22;12385;51.412;5.540;2022-08-19T03:19:13;18.20;99.90
24262;DHT22;12385;51.412;5.540;2022-08-19T03:21:38;18.20;99.90
24262;DHT22;12385;51.412;5.540;2022-08-19T03:24:06;18.10;99.90
24262;DHT22;12385;51.412;5.540;2022-08-19T03:26:32;18.10;99.90
24262;DHT22;12385;51.412;5.540;2022-08-19T03:29:02;18.00;99.90
24262;DHT22;12385;51.412;5.540;2022-08-19T03:31:28;18.00;99.90
24262;DHT22;12385;51.412;5.540;2022-08-19T03:33:55;18.00;99.90
24262;DHT22;12385;51.412;5.540;2022-08-19T03:36:23;17.90;99.90
24262;DHT22;12385;51.412;5.540;2022-08-19T03:38:52;17.90;99.90
24262;DHT22;12385;51.412;5.540;2022-08-19T03:41:20;17.90;99.90
24262;DHT22;12385;51.412;5.540;2022-08-19T03:43:47;17.70;99.90
24262;DHT22;12385;51.412;5.540;2022-08-19T03:46:16;17.80;99.90
24262;DHT22;12385;51.412;5.540;2022-08-19T03:48:43;17.80;99.90
24262;DHT22;12385;51.412;5.540;2022-08-19T03:51:24;17.80;99.90
24262;DHT22;12385;51.412;5.540;2022-08-19T03:53:51;17.90;99.90
24262;DHT22;12385;51.412;5.540;2022-08-19T03:56:17;17.90;99.90
24262;DHT22;12385;51.412;5.540;2022-08-19T03:58:43;17.90;99.90
24262;DHT22;12385;51.412;5.540;2022-08-19T04:01:15;18.00;99.90
24262;DHT22;12385;51.412;5.540;2022-08-19T04:03:41;17.90;99.90
24262;DHT22;12385;51.412;5.540;2022-08-19T04:06:19;17.90;99.90
24262;DHT22;12385;51.412;5.540;2022-08-19T04:08:47;17.90;99.90
24262;DHT22;12385;51.412;5.540;2022-08-19T04:11:16;17.90;99.90
24262;DHT22;12385;51.412;5.540;2022-08-19T04:13:42;17.80;99.90
24262;DHT22;12385;51.412;5.540;2022-08-19T04:16:10;17.80;99.90
24262;DHT22;12385;51.412;5.540;2022-08-19T04:18:38;17.80;99.90
24262;DHT22;12385;51.412;5.540;2022-08-19T04:21:06;17.80;99.90
24262;DHT22;12385;51.412;5.540;2022-08-19T04:23:32;17.80;99.90
24262;DHT22;12385;51.412;5.540;2022-08-19T04:25:59;17.80;99.90
24262;DHT22;12385;51.412;5.540;2022-08-19T04:28:25;17.80;99.90
24262;DHT22;12385;51.412;5.540;2022-08-19T04:30:52;17.80;99.90
24262;DHT22;12385;51.412;5.540;2022-08-19T04:33:25;17.80;99.90
24262;DHT22;12385;51.412;5.540;2022-08-19T04:35:52;17.70;99.90
24262;DHT22;12385;51.412;5.540;2022-08-19T04:38:20;17.60;99.90
24262;DHT22;12385;51.412;5.540;2022-08-19T04:40:49;17.60;99.90
24262;DHT22;12385;51.412;5.540;2022-08-19T04:43:45;17.60;99.90
24262;DHT22;12385;51.412;5.540;2022-08-19T04:46:14;17.60;99.90
24262;DHT22;12385;51.412;5.540;2022-08-19T04:48:40;17.50;99.90
24262;DHT22;12385;51.412;5.540;2022-08-19T04:51:09;17.50;99.90
24262;DHT22;12385;51.412;5.540;2022-08-19T04:53:37;17.50;99.90
24262;DHT22;12385;51.412;5.540;2022-08-19T04:56:11;17.40;99.90
24262;DHT22;12385;51.412;5.540;2022-08-19T04:58:38;17.40;99.90
24262;DHT22;12385;51.412;5.540;2022-08-19T05:01:05;17.40;99.90
24262;DHT22;12385;51.412;5.540;2022-08-19T05:03:30;17.40;99.90
24262;DHT22;12385;51.412;5.540;2022-08-19T05:06:04;17.40;99.90
24262;DHT22;12385;51.412;5.540;2022-08-19T05:08:33;17.40;99.90
24262;DHT22;12385;51.412;5.540;2022-08-19T05:10:59;17.30;99.90
24262;DHT22;12385;51.412;5.540;2022-08-19T05:13:25;17.30;99.90
24262;DHT22;12385;51.412;5.540;2022-08-19T05:15:58;17.30;99.90
24262;DHT22;12385;51.412;5.540;2022-08-19T05:18:24;17.20;99.90
24262;DHT22;12385;51.412;5.540;2022-08-19T05:21:13;17.20;99.90
24262;DHT22;12385;51.412;5.540;2022-08-19T05:23:57;17.20;99.90
24262;DHT22;12385;51.412;5.540;2022-08-19T05:26:24;17.10;99.90
24262;DHT22;12385;51.412;5.540;2022-08-19T05:28:53;17.20;99.90
24262;DHT22;12385;51.412;5.540;2022-08-19T05:31:19;17.20;99.90
24262;DHT22;12385;51.412;5.540;2022-08-19T05:33:46;17.20;99.90
24262;DHT22;12385;51.412;5.540;2022-08-19T05:36:11;17.30;99.90
24262;DHT22;12385;51.412;5.540;2022-08-19T05:38:38;17.30;99.90
24262;DHT22;12385;51.412;5.540;2022-08-19T05:41:11;17.40;99.90
24262;DHT22;12385;51.412;5.540;2022-08-19T05:43:37;17.40;99.90
24262;DHT22;12385;51.412;5.540;2022-08-19T05:46:05;17.40;99.90
24262;DHT22;12385;51.412;5.540;2022-08-19T05:48:32;17.50;99.90
24262;DHT22;12385;51.412;5.540;2022-08-19T05:51:02;17.60;99.90
24262;DHT22;12385;51.412;5.540;2022-08-19T05:53:28;17.60;99.90
24262;DHT22;12385;51.412;5.540;2022-08-19T05:55:54;17.60;99.90
24262;DHT22;12385;51.412;5.540;2022-08-19T05:58:19;17.60;99.90
24262;DHT22;12385;51.412;5.540;2022-08-19T06:00:45;17.70;99.90
24262;DHT22;12385;51.412;5.540;2022-08-19T06:03:10;17.70;99.90
24262;DHT22;12385;51.412;5.540;2022-08-19T06:05:36;17.80;99.90
24262;DHT22;12385;51.412;5.540;2022-08-19T06:08:02;17.80;99.90
24262;DHT22;12385;51.412;5.540;2022-08-19T06:10:28;17.90;99.90
24262;DHT22;12385;51.412;5.540;2022-08-19T06:12:54;17.90;99.90
24262;DHT22;12385;51.412;5.540;2022-08-19T06:15:21;17.90;99.90
24262;DHT22;12385;51.412;5.540;2022-08-19T06:17:50;18.00;99.90
24262;DHT22;12385;51.412;5.540;2022-08-19T06:20:16;18.00;99.90
24262;DHT22;12385;51.412;5.540;2022-08-19T06:22:45;18.00;99.90
24262;DHT22;12385;51.412;5.540;2022-08-19T06:25:13;18.00;99.90
24262;DHT22;12385;51.412;5.540;2022-08-19T06:27:39;18.10;99.90
24262;DHT22;12385;51.412;5.540;2022-08-19T06:30:06;18.10;99.90
24262;DHT22;12385;51.412;5.540;2022-08-19T06:32:31;18.20;99.90
24262;DHT22;12385;51.412;5.540;2022-08-19T06:34:57;18.20;99.90
24262;DHT22;12385;51.412;5.540;2022-08-19T06:37:23;18.30;99.90
24262;DHT22;12385;51.412;5.540;2022-08-19T06:39:49;18.30;99.90
24262;DHT22;12385;51.412;5.540;2022-08-19T06:42:16;18.40;99.90
24262;DHT22;12385;51.412;5.540;2022-08-19T06:44:46;18.40;99.90
24262;DHT22;12385;51.412;5.540;2022-08-19T06:47:15;18.50;99.90
24262;DHT22;12385;51.412;5.540;2022-08-19T06:49:41;18.40;99.90
24262;DHT22;12385;51.412;5.540;2022-08-19T06:52:08;18.50;99.90
24262;DHT22;12385;51.412;5.540;2022-08-19T06:54:33;18.50;99.90
24262;DHT22;12385;51.412;5.540;2022-08-19T06:57:01;18.60;99.90
24262;DHT22;12385;51.412;5.540;2022-08-19T06:59:28;18.60;99.90
24262;DHT22;12385;51.412;5.540;2022-08-19T07:01:58;18.70;99.90
24262;DHT22;12385;51.412;5.540;2022-08-19T07:04:27;18.80;99.90
24262;DHT22;12385;51.412;5.540;2022-08-19T07:06:59;18.80;99.90
24262;DHT22;12385;51.412;5.540;2022-08-19T07:09:25;18.90;99.90
24262;DHT22;12385;51.412;5.540;2022-08-19T07:11:52;19.00;99.90
24262;DHT22;12385;51.412;5.540;2022-08-19T07:14:22;19.00;99.90
24262;DHT22;12385;51.412;5.540;2022-08-19T07:16:56;19.10;99.90
24262;DHT22;12385;51.412;5.540;2022-08-19T07:19:24;19.20;99.90
24262;DHT22;12385;51.412;5.540;2022-08-19T07:21:51;19.30;99.90
24262;DHT22;12385;51.412;5.540;2022-08-19T07:24:22;19.30;99.90
24262;DHT22;12385;51.412;5.540;2022-08-19T07:26:50;19.30;99.90
24262;DHT22;12385;51.412;5.540;2022-08-19T07:29:16;19.40;99.90
24262;DHT22;12385;51.412;5.540;2022-08-19T07:31:42;19.50;99.90
24262;DHT22;12385;51.412;5.540;2022-08-19T07:34:11;19.50;99.90
24262;DHT22;12385;51.412;5.540;2022-08-19T07:36:41;19.60;99.90
24262;DHT22;12385;51.412;5.540;2022-08-19T07:39:11;19.70;99.90
24262;DHT22;12385;51.412;5.540;2022-08-19T07:41:37;19.80;99.90
24262;DHT22;12385;51.412;5.540;2022-08-19T07:44:04;19.90;99.90
24262;DHT22;12385;51.412;5.540;2022-08-19T07:46:31;20.00;99.90
24262;DHT22;12385;51.412;5.540;2022-08-19T07:48:57;20.00;99.90
24262;DHT22;12385;51.412;5.540;2022-08-19T07:51:23;20.10;99.90
24262;DHT22;12385;51.412;5.540;2022-08-19T07:53:49;20.10;99.90
24262;DHT22;12385;51.412;5.540;2022-08-19T07:56:17;20.20;99.90
24262;DHT22;12385;51.412;5.540;2022-08-19T07:58:44;20.30;99.90
24262;DHT22;12385;51.412;5.540;2022-08-19T08:01:13;20.30;99.90
24262;DHT22;12385;51.412;5.540;2022-08-19T08:03:39;20.40;99.90
24262;DHT22;12385;51.412;5.540;2022-08-19T08:06:24;20.50;99.90
24262;DHT22;12385;51.412;5.540;2022-08-19T08:09:10;20.60;99.90
24262;DHT22;12385;51.412;5.540;2022-08-19T08:12:00;20.70;99.90
24262;DHT22;12385;51.412;5.540;2022-08-19T08:14:28;20.90;99.90
24262;DHT22;12385;51.412;5.540;2022-08-19T08:16:55;20.90;99.90
24262;DHT22;12385;51.412;5.540;2022-08-19T08:19:23;21.00;99.90
24262;DHT22;12385;51.412;5.540;2022-08-19T08:21:50;21.10;99.90
24262;DHT22;12385;51.412;5.540;2022-08-19T08:24:17;21.20;99.90
24262;DHT22;12385;51.412;5.540;2022-08-19T08:26:42;21.20;99.90
24262;DHT22;12385;51.412;5.540;2022-08-19T08:29:13;21.30;99.90
24262;DHT22;12385;51.412;5.540;2022-08-19T08:31:40;21.30;99.90
24262;DHT22;12385;51.412;5.540;2022-08-19T08:34:07;21.40;99.90
24262;DHT22;12385;51.412;5.540;2022-08-19T08:36:35;21.40;99.90
24262;DHT22;12385;51.412;5.540;2022-08-19T08:39:01;21.40;99.90
24262;DHT22;12385;51.412;5.540;2022-08-19T08:44:20;21.50;99.90
24262;DHT22;12385;51.412;5.540;2022-08-19T08:46:50;21.50;99.90
24262;DHT22;12385;51.412;5.540;2022-08-19T08:51:56;21.60;99.90
24262;DHT22;12385;51.412;5.540;2022-08-19T08:54:30;21.60;99.90
24262;DHT22;12385;51.412;5.540;2022-08-19T08:56:57;21.60;99.90
24262;DHT22;12385;51.412;5.540;2022-08-19T08:59:30;21.80;99.90
24262;DHT22;12385;51.412;5.540;2022-08-19T09:01:57;21.80;99.90
24262;DHT22;12385;51.412;5.540;2022-08-19T09:04:23;22.00;99.90
24262;DHT22;12385;51.412;5.540;2022-08-19T09:06:56;22.10;99.90
24262;DHT22;12385;51.412;5.540;2022-08-19T09:09:35;22.30;99.90
24262;DHT22;12385;51.412;5.540;2022-08-19T09:12:30;22.40;99.90
24262;DHT22;12385;51.412;5.540;2022-08-19T09:15:08;22.40;99.90
24262;DHT22;12385;51.412;5.540;2022-08-19T09:17:34;22.50;99.90
24262;DHT22;12385;51.412;5.540;2022-08-19T09:20:08;22.60;99.90
24262;DHT22;12385;51.412;5.540;2022-08-19T09:22:41;22.70;99.90
24262;DHT22;12385;51.412;5.540;2022-08-19T09:25:10;22.80;99.90
24262;DHT22;12385;51.412;5.540;2022-08-19T09:27:37;22.80;99.90
24262;DHT22;12385;51.412;5.540;2022-08-19T09:30:04;22.90;99.90
24262;DHT22;12385;51.412;5.540;2022-08-19T09:32:30;22.90;99.90
24262;DHT22;12385;51.412;5.540;2022-08-19T09:34:56;22.80;99.90
24262;DHT22;12385;51.412;5.540;2022-08-19T09:37:24;22.80;99.90
24262;DHT22;12385;51.412;5.540;2022-08-19T09:39:50;22.80;99.90
24262;DHT22;12385;51.412;5.540;2022-08-19T09:42:16;22.80;99.90
24262;DHT22;12385;51.412;5.540;2022-08-19T09:44:42;22.90;99.90
24262;DHT22;12385;51.412;5.540;2022-08-19T09:47:13;23.10;99.90
24262;DHT22;12385;51.412;5.540;2022-08-19T09:49:39;23.30;99.90
24262;DHT22;12385;51.412;5.540;2022-08-19T09:52:06;23.40;99.90
24262;DHT22;12385;51.412;5.540;2022-08-19T09:54:33;23.60;99.90
24262;DHT22;12385;51.412;5.540;2022-08-19T09:56:59;23.60;99.90
24262;DHT22;12385;51.412;5.540;2022-08-19T09:59:28;23.70;99.90
24262;DHT22;12385;51.412;5.540;2022-08-19T10:01:54;23.60;99.90
24262;DHT22;12385;51.412;5.540;2022-08-19T10:04:20;23.60;99.90
24262;DHT22;12385;51.412;5.540;2022-08-19T10:06:47;23.50;99.90
24262;DHT22;12385;51.412;5.540;2022-08-19T10:09:15;23.40;99.90
24262;DHT22;12385;51.412;5.540;2022-08-19T10:11:44;23.40;99.90
24262;DHT22;12385;51.412;5.540;2022-08-19T10:14:14;23.30;99.90
24262;DHT22;12385;51.412;5.540;2022-08-19T10:16:41;23.20;99.90
24262;DHT22;12385;51.412;5.540;2022-08-19T10:19:07;23.10;99.90
24262;DHT22;12385;51.412;5.540;2022-08-19T10:21:35;23.10;99.90
24262;DHT22;12385;51.412;5.540;2022-08-19T10:24:03;23.10;99.90
24262;DHT22;12385;51.412;5.540;2022-08-19T10:26:33;23.20;99.90
24262;DHT22;12385;51.412;5.540;2022-08-19T10:29:00;23.30;99.90
24262;DHT22;12385;51.412;5.540;2022-08-19T10:31:28;23.40;99.90
24262;DHT22;12385;51.412;5.540;2022-08-19T10:33:54;23.50;99.90
24262;DHT22;12385;51.412;5.540;2022-08-19T10:36:25;23.60;99.90
24262;DHT22;12385;51.412;5.540;2022-08-19T10:38:54;23.60;99.90
24262;DHT22;12385;51.412;5.540;2022-08-19T10:41:24;23.60;99.90
24262;DHT22;12385;51.412;5.540;2022-08-19T10:43:55;23.70;99.90
24262;DHT22;12385;51.412;5.540;2022-08-19T10:46:22;23.70;99.90
24262;DHT22;12385;51.412;5.540;2022-08-19T10:48:49;23.80;99.90
24262;DHT22;12385;51.412;5.540;2022-08-19T10:51:15;23.70;99.90
24262;DHT22;12385;51.412;5.540;2022-08-19T10:54:00;23.70;99.90
24262;DHT22;12385;51.412;5.540;2022-08-19T10:56:27;23.70;99.90
24262;DHT22;12385;51.412;5.540;2022-08-19T10:59:12;23.70;99.90
24262;DHT22;12385;51.412;5.540;2022-08-19T11:01:40;23.70;99.90
24262;DHT22;12385;51.412;5.540;2022-08-19T11:04:06;23.80;99.90
24262;DHT22;12385;51.412;5.540;2022-08-19T11:06:36;23.80;99.90
24262;DHT22;12385;51.412;5.540;2022-08-19T11:09:04;23.90;99.90
24262;DHT22;12385;51.412;5.540;2022-08-19T11:11:30;23.90;99.90
24262;DHT22;12385;51.412;5.540;2022-08-19T11:13:57;24.00;99.90
24262;DHT22;12385;51.412;5.540;2022-08-19T11:16:25;24.00;99.90
24262;DHT22;12385;51.412;5.540;2022-08-19T11:18:56;24.10;99.90
24262;DHT22;12385;51.412;5.540;2022-08-19T11:21:29;24.20;99.90
24262;DHT22;12385;51.412;5.540;2022-08-19T11:23:59;24.20;99.90
24262;DHT22;12385;51.412;5.540;2022-08-19T11:26:26;24.20;99.90
24262;DHT22;12385;51.412;5.540;2022-08-19T11:28:52;24.30;99.90
24262;DHT22;12385;51.412;5.540;2022-08-19T11:31:21;24.40;99.90
24262;DHT22;12385;51.412;5.540;2022-08-19T11:33:47;24.40;99.90
24262;DHT22;12385;51.412;5.540;2022-08-19T11:36:16;24.60;99.90
24262;DHT22;12385;51.412;5.540;2022-08-19T11:38:43;24.70;99.90
24262;DHT22;12385;51.412;5.540;2022-08-19T11:41:08;24.90;99.90
24262;DHT22;12385;51.412;5.540;2022-08-19T11:43:35;25.10;99.90
24262;DHT22;12385;51.412;5.540;2022-08-19T11:46:08;25.20;99.70
24262;DHT22;12385;51.412;5.540;2022-08-19T11:48:36;25.30;99.40
24262;DHT22;12385;51.412;5.540;2022-08-19T11:51:09;25.40;99.00
24262;DHT22;12385;51.412;5.540;2022-08-19T11:53:36;25.50;98.40
24262;DHT22;12385;51.412;5.540;2022-08-19T11:56:07;25.50;98.20
24262;DHT22;12385;51.412;5.540;2022-08-19T11:58:33;25.40;98.60
24262;DHT22;12385;51.412;5.540;2022-08-19T12:01:00;25.30;98.70
24262;DHT22;12385;51.412;5.540;2022-08-19T12:03:26;25.40;98.80
24262;DHT22;12385;51.412;5.540;2022-08-19T12:05:51;25.40;99.10
24262;DHT22;12385;51.412;5.540;2022-08-19T12:08:17;25.50;98.70
24262;DHT22;12385;51.412;5.540;2022-08-19T12:10:44;25.50;98.50
24262;DHT22;12385;51.412;5.540;2022-08-19T12:13:11;25.40;98.20
24262;DHT22;12385;51.412;5.540;2022-08-19T12:15:39;25.40;98.40
24262;DHT22;12385;51.412;5.540;2022-08-19T12:18:08;25.40;98.00
24262;DHT22;12385;51.412;5.540;2022-08-19T12:20:38;25.30;97.80
24262;DHT22;12385;51.412;5.540;2022-08-19T12:23:06;25.30;98.20
24262;DHT22;12385;51.412;5.540;2022-08-19T12:25:32;25.20;98.60
24262;DHT22;12385;51.412;5.540;2022-08-19T12:27:59;25.20;99.10
24262;DHT22;12385;51.412;5.540;2022-08-19T12:30:25;25.20;99.20
24262;DHT22;12385;51.412;5.540;2022-08-19T12:32:51;25.30;99.00
24262;DHT22;12385;51.412;5.540;2022-08-19T12:35:17;25.30;99.40
24262;DHT22;12385;51.412;5.540;2022-08-19T12:37:46;25.40;98.90
24262;DHT22;12385;51.412;5.540;2022-08-19T12:40:13;25.30;98.50
24262;DHT22;12385;51.412;5.540;2022-08-19T12:42:40;25.30;98.60
24262;DHT22;12385;51.412;5.540;2022-08-19T12:45:12;25.30;98.70
24262;DHT22;12385;51.412;5.540;2022-08-19T12:47:39;25.40;99.00
24262;DHT22;12385;51.412;5.540;2022-08-19T12:50:05;25.60;98.90
24262;DHT22;12385;51.412;5.540;2022-08-19T12:52:36;25.70;98.70
24262;DHT22;12385;51.412;5.540;2022-08-19T12:55:07;25.90;98.40
24262;DHT22;12385;51.412;5.540;2022-08-19T12:57:33;25.90;98.00
24262;DHT22;12385;51.412;5.540;2022-08-19T13:00:14;26.00;98.10
24262;DHT22;12385;51.412;5.540;2022-08-19T13:02:40;26.20;97.60
24262;DHT22;12385;51.412;5.540;2022-08-19T13:05:08;26.20;97.70
24262;DHT22;12385;51.412;5.540;2022-08-19T13:07:35;26.20;98.00
24262;DHT22;12385;51.412;5.540;2022-08-19T13:10:02;26.40;97.50
24262;DHT22;12385;51.412;5.540;2022-08-19T13:12:28;26.40;97.60
24262;DHT22;12385;51.412;5.540;2022-08-19T13:14:54;26.60;97.40
24262;DHT22;12385;51.412;5.540;2022-08-19T13:17:20;27.00;97.40
24262;DHT22;12385;51.412;5.540;2022-08-19T13:19:48;27.50;97.10
24262;DHT22;12385;51.412;5.540;2022-08-19T13:22:14;28.10;96.00
24262;DHT22;12385;51.412;5.540;2022-08-19T13:24:39;28.50;94.80
24262;DHT22;12385;51.412;5.540;2022-08-19T13:27:05;28.90;93.50
24262;DHT22;12385;51.412;5.540;2022-08-19T13:29:32;29.40;92.40
24262;DHT22;12385;51.412;5.540;2022-08-19T13:32:16;29.70;91.70
24262;DHT22;12385;51.412;5.540;2022-08-19T13:35:02;30.00;90.70
24262;DHT22;12385;51.412;5.540;2022-08-19T13:37:27;29.80;90.00
24262;DHT22;12385;51.412;5.540;2022-08-19T13:40:15;29.60;90.10
24262;DHT22;12385;51.412;5.540;2022-08-19T13:42:44;29.50;89.10
24262;DHT22;12385;51.412;5.540;2022-08-19T13:45:12;29.50;90.00
24262;DHT22;12385;51.412;5.540;2022-08-19T13:47:38;29.60;90.00
24262;DHT22;12385;51.412;5.540;2022-08-19T13:50:16;29.70;89.20
24262;DHT22;12385;51.412;5.540;2022-08-19T13:52:42;29.50;88.50
24262;DHT22;12385;51.412;5.540;2022-08-19T13:55:09;29.20;89.00
24262;DHT22;12385;51.412;5.540;2022-08-19T13:57:36;29.00;89.50
24262;DHT22;12385;51.412;5.540;2022-08-19T14:00:12;29.20;89.40
24262;DHT22;12385;51.412;5.540;2022-08-19T14:02:38;29.70;88.00
24262;DHT22;12385;51.412;5.540;2022-08-19T14:05:07;30.40;86.90
24262;DHT22;12385;51.412;5.540;2022-08-19T14:07:33;30.90;84.40
24262;DHT22;12385;51.412;5.540;2022-08-19T14:09:59;30.90;83.40
24262;DHT22;12385;51.412;5.540;2022-08-19T14:12:25;31.00;82.80
24262;DHT22;12385;51.412;5.540;2022-08-19T14:14:50;31.30;81.10
24262;DHT22;12385;51.412;5.540;2022-08-19T14:17:16;31.60;79.80
24262;DHT22;12385;51.412;5.540;2022-08-19T14:19:42;31.90;77.10
24262;DHT22;12385;51.412;5.540;2022-08-19T14:22:09;32.30;75.50
24262;DHT22;12385;51.412;5.540;2022-08-19T14:24:37;32.70;74.10
24262;DHT22;12385;51.412;5.540;2022-08-19T14:27:05;32.80;71.70
24262;DHT22;12385;51.412;5.540;2022-08-19T14:29:31;32.80;71.20
24262;DHT22;12385;51.412;5.540;2022-08-19T14:31:57;32.70;70.40
24262;DHT22;12385;51.412;5.540;2022-08-19T14:34:25;32.40;70.20
24262;DHT22;12385;51.412;5.540;2022-08-19T14:36:51;31.90;71.40
24262;DHT22;12385;51.412;5.540;2022-08-19T14:39:17;31.60;71.80
24262;DHT22;12385;51.412;5.540;2022-08-19T14:41:43;31.30;72.30
24262;DHT22;12385;51.412;5.540;2022-08-19T14:44:08;31.00;73.30
24262;DHT22;12385;51.412;5.540;2022-08-19T14:46:38;30.70;73.50
24262;DHT22;12385;51.412;5.540;2022-08-19T14:49:03;30.40;74.00
24262;DHT22;12385;51.412;5.540;2022-08-19T14:51:29;30.20;75.30
24262;DHT22;12385;51.412;5.540;2022-08-19T14:53:55;30.00;76.20
24262;DHT22;12385;51.412;5.540;2022-08-19T14:56:23;29.90;77.40
24262;DHT22;12385;51.412;5.540;2022-08-19T14:58:49;29.70;77.50
24262;DHT22;12385;51.412;5.540;2022-08-19T15:01:17;29.40;77.60
24262;DHT22;12385;51.412;5.540;2022-08-19T15:03:45;29.30;77.90
24262;DHT22;12385;51.412;5.540;2022-08-19T15:06:11;29.10;78.60
24262;DHT22;12385;51.412;5.540;2022-08-19T15:08:38;29.00;80.70
24262;DHT22;12385;51.412;5.540;2022-08-19T15:11:08;28.80;81.20
24262;DHT22;12385;51.412;5.540;2022-08-19T15:13:34;28.80;82.20
24262;DHT22;12385;51.412;5.540;2022-08-19T15:16:01;28.60;83.10
24262;DHT22;12385;51.412;5.540;2022-08-19T15:18:27;28.40;84.00
24262;DHT22;12385;51.412;5.540;2022-08-19T15:20:52;28.30;84.50
24262;DHT22;12385;51.412;5.540;2022-08-19T15:23:19;28.10;85.70
24262;DHT22;12385;51.412;5.540;2022-08-19T15:25:45;28.00;84.90
24262;DHT22;12385;51.412;5.540;2022-08-19T15:28:11;28.00;85.40
24262;DHT22;12385;51.412;5.540;2022-08-19T15:30:37;27.90;85.10
24262;DHT22;12385;51.412;5.540;2022-08-19T15:33:03;27.90;85.20
24262;DHT22;12385;51.412;5.540;2022-08-19T15:35:29;27.90;85.10
24262;DHT22;12385;51.412;5.540;2022-08-19T15:37:55;27.90;85.50
24262;DHT22;12385;51.412;5.540;2022-08-19T15:40:22;27.90;85.20